Time;durP1;ratioP1;P1;durP2;ratioP2;P2;SDS_P1;SDS_P2;PMS_P1;PMS_P2;Temp;Humidity;BMP_temperature;BMP_pressure;BME280_temperature;BME280_humidity;BME280_pressure;Samples;Min_cycle;Max_cycle;Signal;HPM_P1;HPM_P2
2021/04/09 00:01:56;;;;;;;3.30;1.42;;;;;;;;;;6104927;29;20082;-75
2021/04/09 00:04:57;;;;;;;4.95;1.52;;;;;;;;;;6124021;29;20147;-74
2021/04/09 00:08:00;;;;;;;5.10;2.03;;;;;;;;;;6121357;29;20085;-75
2021/04/09 00:11:02;;;;;;;6.30;1.63;;;;;;;;;;6112050;29;20078;-75
2021/04/09 00:14:03;;;;;;;7.05;1.60;;;;;;;;;;6113493;29;20052;-75
2021/04/09 00:17:05;;;;;;;4.43;1.85;;;;;;;;;;6119552;29;20127;-75
2021/04/09 00:20:08;;;;;;;6.45;1.35;;;;;;;;;;6111462;29;20491;-74
2021/04/09 00:23:09;;;;;;;3.55;1.45;;;;;;;;;;6113270;29;20119;-75
2021/04/09 00:26:10;;;;;;;2.85;1.40;;;;;;;;;;6108092;29;20048;-75
2021/04/09 00:29:11;;;;;;;3.35;1.20;;;;;;;;;;6112635;29;20131;-76
2021/04/09 00:32:13;;;;;;;5.95;1.70;;;;;;;;;;6113287;29;20052;-75
2021/04/09 00:35:15;;;;;;;4.18;1.35;;;;;;;;;;6116348;29;20131;-76
2021/04/09 00:38:16;;;;;;;3.45;1.45;;;;;;;;;;6111225;29;20770;-76
2021/04/09 00:41:17;;;;;;;7.32;1.52;;;;;;;;;;6114328;29;20055;-75
2021/04/09 00:44:18;;;;;;;4.97;1.70;;;;;;;;;;6115650;29;20726;-75
2021/04/09 00:47:20;;;;;;;6.03;1.90;;;;;;;;;;6113549;29;20494;-76
2021/04/09 00:50:22;;;;;;;3.00;1.33;;;;;;;;;;6119602;29;20124;-77
2021/04/09 00:53:23;;;;;;;4.65;1.67;;;;;;;;;;6114609;29;20127;-76
2021/04/09 00:56:28;;;;;;;8.55;1.40;;;;;;;;;;6108788;29;20140;-74
2021/04/09 00:59:29;;;;;;;8.10;1.80;;;;;;;;;;6114588;29;20060;-76
2021/04/09 01:02:30;;;;;;;5.15;1.40;;;;;;;;;;6115978;29;20047;-76
2021/04/09 01:05:32;;;;;;;5.88;1.50;;;;;;;;;;6109896;29;20503;-76
2021/04/09 01:08:36;;;;;;;5.25;1.73;;;;;;;;;;6115074;29;20182;-76
2021/04/09 01:11:37;;;;;;;8.52;2.05;;;;;;;;;;6111590;29;20140;-76
2021/04/09 01:14:38;;;;;;;10.35;1.50;;;;;;;;;;6119566;29;20131;-77
2021/04/09 01:17:42;;;;;;;3.67;1.30;;;;;;;;;;6117087;29;20078;-76
2021/04/09 01:20:53;;;;;;;7.00;1.75;;;;;;;;;;6115636;29;20486;-76
2021/04/09 01:24:16;;;;;;;4.35;1.50;;;;;;;;;;6104955;29;20142;-77
2021/04/09 01:27:46;;;;;;;5.25;1.77;;;;;;;;;;6113565;29;20046;-77
2021/04/09 01:31:03;;;;;;;6.90;1.77;;;;;;;;;;6105530;29;20048;-76
2021/04/09 01:34:06;;;;;;;6.63;1.60;;;;;;;;;;6092889;29;20064;-76
2021/04/09 01:37:11;;;;;;;8.88;1.80;;;;;;;;;;6093333;29;20131;-76
2021/04/09 01:40:17;;;;;;;5.97;1.40;;;;;;;;;;6093424;29;20472;-76
2021/04/09 01:43:20;;;;;;;4.85;1.42;;;;;;;;;;6091379;29;20068;-76
2021/04/09 01:46:21;;;;;;;5.20;1.65;;;;;;;;;;6102214;29;20071;-77
2021/04/09 01:49:24;;;;;;;5.53;1.60;;;;;;;;;;6099299;29;20048;-76
2021/04/09 01:52:27;;;;;;;4.22;1.77;;;;;;;;;;6115213;29;20135;-76
2021/04/09 01:55:29;;;;;;;7.35;1.52;;;;;;;;;;6115976;29;20083;-76
2021/04/09 01:58:30;;;;;;;5.32;1.65;;;;;;;;;;6110704;29;20154;-76
2021/04/09 02:01:31;;;;;;;6.60;1.75;;;;;;;;;;6112970;29;20523;-75
2021/04/09 02:04:34;;;;;;;5.57;1.50;;;;;;;;;;6113374;28;20123;-75
2021/04/09 02:07:35;;;;;;;6.22;1.55;;;;;;;;;;6108983;29;20207;-75
2021/04/09 02:10:37;;;;;;;4.55;1.65;;;;;;;;;;6112891;29;20611;-74
2021/04/09 02:13:39;;;;;;;6.32;1.52;;;;;;;;;;6111893;28;20083;-75
2021/04/09 02:16:40;;;;;;;6.90;1.58;;;;;;;;;;6117431;29;20142;-75
2021/04/09 02:19:42;;;;;;;11.70;1.70;;;;;;;;;;6115339;29;20421;-75
2021/04/09 02:22:44;;;;;;;5.65;1.70;;;;;;;;;;6115477;29;20127;-74
2021/04/09 02:25:46;;;;;;;4.90;1.30;;;;;;;;;;6120662;29;20118;-75
2021/04/09 02:28:47;;;;;;;6.65;1.90;;;;;;;;;;6121162;29;20507;-76
2021/04/09 02:31:49;;;;;;;10.60;1.55;;;;;;;;;;6124647;29;20126;-75
2021/04/09 02:34:51;;;;;;;7.35;1.70;;;;;;;;;;6122316;29;20469;-74
2021/04/09 02:37:53;;;;;;;7.35;1.55;;;;;;;;;;6122190;29;20135;-75
2021/04/09 02:40:56;;;;;;;7.15;1.90;;;;;;;;;;6119977;29;20139;-74
2021/04/09 02:43:57;;;;;;;10.10;1.73;;;;;;;;;;6111852;29;20770;-75
2021/04/09 02:47:03;;;;;;;4.18;1.40;;;;;;;;;;6113364;29;20068;-75
2021/04/09 02:50:11;;;;;;;3.13;1.40;;;;;;;;;;6111750;29;20135;-74
2021/04/09 02:53:15;;;;;;;5.90;1.58;;;;;;;;;;6101130;29;20582;-74
2021/04/09 02:56:17;;;;;;;3.92;1.45;;;;;;;;;;6090936;29;20059;-75
2021/04/09 02:59:19;;;;;;;5.35;1.55;;;;;;;;;;6097356;29;20427;-75
2021/04/09 03:02:21;;;;;;;8.32;1.70;;;;;;;;;;6089250;29;20068;-75
2021/04/09 03:05:23;;;;;;;6.82;1.80;;;;;;;;;;6086733;29;20128;-78
2021/04/09 03:08:24;;;;;;;4.32;1.83;;;;;;;;;;6091335;29;20131;-75
2021/04/09 03:11:26;;;;;;;5.40;1.50;;;;;;;;;;6065146;29;20059;-76
2021/04/09 03:14:27;;;;;;;7.85;1.60;;;;;;;;;;6087859;29;20056;-75
2021/04/09 03:17:31;;;;;;;6.55;1.80;;;;;;;;;;6092077;29;20083;-75
2021/04/09 03:20:33;;;;;;;5.50;1.85;;;;;;;;;;6117046;29;20075;-75
2021/04/09 03:23:34;;;;;;;6.35;1.52;;;;;;;;;;6101039;29;20068;-76
2021/04/09 03:26:35;;;;;;;4.65;1.25;;;;;;;;;;6108992;29;20119;-76
2021/04/09 03:29:37;;;;;;;4.93;1.70;;;;;;;;;;6111775;29;20056;-76
2021/04/09 03:32:38;;;;;;;6.22;2.03;;;;;;;;;;6116718;29;20552;-76
2021/04/09 03:35:40;;;;;;;8.32;1.77;;;;;;;;;;6120556;29;20170;-76
2021/04/09 03:38:41;;;;;;;5.88;1.70;;;;;;;;;;6126775;29;20534;-75
2021/04/09 03:41:42;;;;;;;6.15;1.75;;;;;;;;;;6115900;29;20528;-76
2021/04/09 03:44:43;;;;;;;6.68;1.55;;;;;;;;;;6113967;29;20590;-76
2021/04/09 03:47:44;;;;;;;4.10;1.75;;;;;;;;;;6115438;29;20496;-76
2021/04/09 03:50:46;;;;;;;6.03;2.00;;;;;;;;;;6125111;29;20072;-76
2021/04/09 03:53:47;;;;;;;8.00;1.77;;;;;;;;;;6121109;29;20075;-76
2021/04/09 03:56:48;;;;;;;9.77;2.22;;;;;;;;;;6120498;29;20060;-76
2021/04/09 03:59:49;;;;;;;5.65;1.50;;;;;;;;;;6113593;29;20134;-76
2021/04/09 04:02:50;;;;;;;4.82;2.08;;;;;;;;;;6114876;29;20131;-75
2021/04/09 04:05:53;;;;;;;5.18;1.90;;;;;;;;;;6111105;29;20044;-75
2021/04/09 04:08:54;;;;;;;8.45;2.00;;;;;;;;;;6111454;29;20070;-75
2021/04/09 04:11:55;;;;;;;15.32;2.47;;;;;;;;;;6105756;29;20063;-75
2021/04/09 04:14:56;;;;;;;7.93;2.22;;;;;;;;;;6110656;29;20183;-76
2021/04/09 04:17:57;;;;;;;6.63;1.83;;;;;;;;;;6103168;29;20131;-76
2021/04/09 04:20:59;;;;;;;6.88;2.22;;;;;;;;;;6119640;29;20047;-75
2021/04/09 04:24:01;;;;;;;6.53;2.05;;;;;;;;;;6111425;29;20692;-76
2021/04/09 04:27:02;;;;;;;5.80;1.90;;;;;;;;;;6110441;29;20079;-75
2021/04/09 04:30:05;;;;;;;7.68;2.40;;;;;;;;;;6117620;29;20052;-75
2021/04/09 04:33:06;;;;;;;9.25;2.15;;;;;;;;;;6110517;29;20785;-76
2021/04/09 04:36:08;;;;;;;14.32;2.50;;;;;;;;;;6108684;29;20052;-76
2021/04/09 04:39:09;;;;;;;6.80;1.98;;;;;;;;;;6113043;29;20062;-76
2021/04/09 04:42:10;;;;;;;7.70;2.05;;;;;;;;;;6116093;29;20454;-76
2021/04/09 04:45:12;;;;;;;7.15;2.17;;;;;;;;;;6111181;29;20155;-76
2021/04/09 04:48:13;;;;;;;7.38;2.28;;;;;;;;;;6110088;29;20048;-76
2021/04/09 04:51:15;;;;;;;14.32;3.03;;;;;;;;;;6120005;29;20099;-75
2021/04/09 04:54:16;;;;;;;9.40;2.40;;;;;;;;;;6117422;29;20528;-76
2021/04/09 04:57:17;;;;;;;10.73;3.35;;;;;;;;;;6119461;29;20134;-75
2021/04/09 05:00:19;;;;;;;6.68;2.30;;;;;;;;;;6120696;29;20131;-75
2021/04/09 05:03:20;;;;;;;9.95;2.50;;;;;;;;;;6113634;29;20067;-75
2021/04/09 05:06:22;;;;;;;7.03;2.25;;;;;;;;;;6118655;29;20061;-76
2021/04/09 05:09:23;;;;;;;14.40;2.42;;;;;;;;;;6115248;29;20044;-77
2021/04/09 05:12:24;;;;;;;7.97;2.40;;;;;;;;;;6112254;29;20052;-76
2021/04/09 05:15:25;;;;;;;6.78;2.35;;;;;;;;;;6117188;29;20063;-76
2021/04/09 05:18:27;;;;;;;5.38;2.88;;;;;;;;;;6117057;29;20180;-75
2021/04/09 05:21:29;;;;;;;11.07;2.95;;;;;;;;;;6109513;29;20151;-75
2021/04/09 05:24:30;;;;;;;13.70;2.70;;;;;;;;;;6113161;29;20184;-76
2021/04/09 05:27:31;;;;;;;14.00;3.03;;;;;;;;;;6125216;29;20676;-75
2021/04/09 05:30:32;;;;;;;5.85;2.40;;;;;;;;;;6117922;29;20052;-76
2021/04/09 05:33:33;;;;;;;7.45;2.88;;;;;;;;;;6119636;29;20139;-73
2021/04/09 05:36:35;;;;;;;10.48;2.88;;;;;;;;;;6110917;29;20079;-74
2021/04/09 05:39:36;;;;;;;8.98;3.70;;;;;;;;;;6113916;29;20101;-75
2021/04/09 05:42:37;;;;;;;9.05;2.95;;;;;;;;;;6115283;29;20108;-76
2021/04/09 05:45:39;;;;;;;11.25;3.38;;;;;;;;;;6122685;29;21453;-75
2021/04/09 05:48:40;;;;;;;9.45;3.58;;;;;;;;;;6126324;29;20055;-74
2021/04/09 05:51:42;;;;;;;13.00;4.15;;;;;;;;;;6116252;29;20221;-74
2021/04/09 05:54:43;;;;;;;11.82;3.45;;;;;;;;;;6112027;29;20187;-74
2021/04/09 05:57:44;;;;;;;7.38;2.95;;;;;;;;;;6111790;29;20075;-75
2021/04/09 06:00:45;;;;;;;6.50;3.38;;;;;;;;;;6122552;29;20127;-75
2021/04/09 06:03:47;;;;;;;14.88;4.60;;;;;;;;;;6119802;29;20110;-77
2021/04/09 06:06:49;;;;;;;8.45;4.30;;;;;;;;;;6123856;29;20547;-75
2021/04/09 06:09:50;;;;;;;8.75;3.75;;;;;;;;;;6121673;29;20047;-76
2021/04/09 06:12:51;;;;;;;5.60;4.10;;;;;;;;;;6120047;29;20079;-75
2021/04/09 06:15:52;;;;;;;7.30;3.25;;;;;;;;;;6114917;29;20506;-75
2021/04/09 06:18:53;;;;;;;12.43;4.22;;;;;;;;;;6110309;29;20071;-75
2021/04/09 06:21:55;;;;;;;6.63;3.40;;;;;;;;;;6110703;29;20083;-76
2021/04/09 06:24:56;;;;;;;14.13;4.53;;;;;;;;;;6114901;29;20122;-76
2021/04/09 06:27:57;;;;;;;15.02;4.35;;;;;;;;;;6118446;29;20395;-75
2021/04/09 06:30:59;;;;;;;11.55;4.60;;;;;;;;;;6118086;29;20063;-76
2021/04/09 06:34:00;;;;;;;10.88;4.28;;;;;;;;;;6124665;29;20059;-76
2021/04/09 06:37:02;;;;;;;16.70;4.53;;;;;;;;;;6121164;29;20051;-76
2021/04/09 06:40:04;;;;;;;11.50;4.10;;;;;;;;;;6116612;29;20206;-76
2021/04/09 06:43:06;;;;;;;9.50;4.10;;;;;;;;;;6112645;29;20082;-75
2021/04/09 06:46:07;;;;;;;8.20;3.25;;;;;;;;;;6119591;29;20052;-75
2021/04/09 06:49:08;;;;;;;12.38;4.43;;;;;;;;;;6112225;29;20075;-75
2021/04/09 06:52:11;;;;;;;5.50;3.60;;;;;;;;;;6111178;29;20079;-76
2021/04/09 06:55:13;;;;;;;7.57;3.90;;;;;;;;;;6117630;29;20057;-75
2021/04/09 06:58:15;;;;;;;9.35;3.55;;;;;;;;;;6111144;29;20079;-75
2021/04/09 07:01:17;;;;;;;9.63;3.55;;;;;;;;;;6107654;29;20127;-76
2021/04/09 07:04:19;;;;;;;12.52;3.92;;;;;;;;;;6109592;29;20072;-76
2021/04/09 07:07:21;;;;;;;9.80;3.63;;;;;;;;;;6113517;29;20147;-77
2021/04/09 07:10:22;;;;;;;10.57;3.83;;;;;;;;;;6120733;29;20130;-76
2021/04/09 07:13:23;;;;;;;12.93;4.63;;;;;;;;;;6121052;29;20108;-77
2021/04/09 07:16:24;;;;;;;12.50;3.75;;;;;;;;;;6114980;29;20086;-77
2021/04/09 07:19:33;;;;;;;13.90;4.10;;;;;;;;;;6115368;29;20047;-77
2021/04/09 07:22:35;;;;;;;16.63;4.53;;;;;;;;;;6113300;29;20047;-76
2021/04/09 07:25:37;;;;;;;10.27;4.00;;;;;;;;;;6111852;29;20050;-76
2021/04/09 07:28:38;;;;;;;11.55;4.10;;;;;;;;;;6116279;29;20142;-76
2021/04/09 07:31:39;;;;;;;12.80;4.00;;;;;;;;;;6115765;29;20122;-76
2021/04/09 07:34:51;;;;;;;16.38;4.80;;;;;;;;;;6115502;29;20076;-76
2021/04/09 07:37:55;;;;;;;11.80;4.65;;;;;;;;;;6115773;29;20451;-77
2021/04/09 07:40:58;;;;;;;15.93;4.50;;;;;;;;;;6115203;29;20075;-76
2021/04/09 07:44:14;;;;;;;14.10;4.70;;;;;;;;;;6113620;29;20078;-77
2021/04/09 07:47:15;;;;;;;15.13;4.88;;;;;;;;;;6112773;29;20089;-76
2021/04/09 07:50:17;;;;;;;13.20;5.13;;;;;;;;;;6109721;29;20615;-75
2021/04/09 07:53:20;;;;;;;15.38;5.13;;;;;;;;;;6114272;29;20760;-77
2021/04/09 07:56:21;;;;;;;19.08;5.38;;;;;;;;;;6116136;29;20076;-71
2021/04/09 07:59:35;;;;;;;13.20;5.38;;;;;;;;;;6118625;29;20079;-72
2021/04/09 08:02:39;;;;;;;12.57;5.03;;;;;;;;;;6105830;29;20563;-75
2021/04/09 08:05:40;;;;;;;15.40;5.05;;;;;;;;;;6103825;29;20126;-75
2021/04/09 08:08:57;;;;;;;11.18;5.05;;;;;;;;;;6109035;29;20201;-73
2021/04/09 08:11:58;;;;;;;19.65;6.03;;;;;;;;;;6110440;29;20087;-73
2021/04/09 08:15:16;;;;;;;17.85;5.97;;;;;;;;;;6110581;29;20051;-73
2021/04/09 08:18:28;;;;;;;14.02;5.22;;;;;;;;;;6104917;29;20039;-72
2021/04/09 08:21:30;;;;;;;14.05;5.28;;;;;;;;;;6110780;29;20151;-72
2021/04/09 08:24:34;;;;;;;13.43;5.65;;;;;;;;;;6102809;29;20120;-73
2021/04/09 08:27:36;;;;;;;14.93;5.57;;;;;;;;;;6110592;29;20059;-72
2021/04/09 08:30:37;;;;;;;19.20;6.32;;;;;;;;;;6105302;29;20883;-72
2021/04/09 08:33:39;;;;;;;17.10;5.90;;;;;;;;;;6111577;29;20068;-72
2021/04/09 08:36:40;;;;;;;13.02;5.28;;;;;;;;;;6110412;29;21252;-71
2021/04/09 08:39:42;;;;;;;16.70;6.43;;;;;;;;;;6090844;29;20064;-72
2021/04/09 08:42:44;;;;;;;12.80;6.88;;;;;;;;;;6106832;29;20047;-74
2021/04/09 08:45:45;;;;;;;10.65;5.70;;;;;;;;;;6111547;29;20057;-73
2021/04/09 08:48:48;;;;;;;12.70;6.03;;;;;;;;;;6097078;29;20736;-73
2021/04/09 08:51:51;;;;;;;13.77;5.85;;;;;;;;;;6087314;29;20147;-72
2021/04/09 08:54:55;;;;;;;10.93;5.93;;;;;;;;;;6091347;29;20155;-71
2021/04/09 08:58:13;;;;;;;12.48;6.45;;;;;;;;;;6093981;29;20139;-71
2021/04/09 09:01:15;;;;;;;11.55;6.43;;;;;;;;;;6084335;29;20569;-73
2021/04/09 09:04:34;;;;;;;10.90;5.88;;;;;;;;;;6089425;29;21078;-74
2021/04/09 09:07:53;;;;;;;14.95;6.65;;;;;;;;;;6095265;29;20524;-74
2021/04/09 09:10:58;;;;;;;8.70;5.57;;;;;;;;;;6086979;29;20465;-73
2021/04/09 09:13:59;;;;;;;13.85;5.57;;;;;;;;;;6107042;29;20135;-72
2021/04/09 09:17:47;;;;;;;13.98;6.50;;;;;;;;;;6087918;29;20579;-72
2021/04/09 09:21:00;;;;;;;15.13;5.85;;;;;;;;;;6111135;29;20072;-74
2021/04/09 09:24:02;;;;;;;15.25;6.45;;;;;;;;;;6106268;29;20050;-75
2021/04/09 09:27:10;;;;;;;17.13;6.90;;;;;;;;;;6111462;29;20558;-74
2021/04/09 09:30:29;;;;;;;21.90;6.70;;;;;;;;;;6114797;29;20411;-72
2021/04/09 09:33:30;;;;;;;14.40;6.32;;;;;;;;;;6116465;29;20566;-73
2021/04/09 09:36:58;;;;;;;10.93;6.13;;;;;;;;;;6115936;29;20059;-73
2021/04/09 09:40:03;;;;;;;11.57;6.22;;;;;;;;;;6117270;29;20050;-75
2021/04/09 09:43:05;;;;;;;16.00;6.43;;;;;;;;;;6116349;29;20115;-74
2021/04/09 09:46:06;;;;;;;12.27;6.00;;;;;;;;;;6117230;29;20119;-69
2021/04/09 09:49:08;;;;;;;25.02;6.85;;;;;;;;;;6113762;29;20067;-69
2021/04/09 09:52:22;;;;;;;20.05;7.20;;;;;;;;;;6109300;29;20055;-76
2021/04/09 09:55:25;;;;;;;13.18;7.25;;;;;;;;;;6118035;29;20725;-76
2021/04/09 09:58:29;;;;;;;14.88;7.25;;;;;;;;;;6113762;29;20127;-76
2021/04/09 10:01:31;;;;;;;14.85;7.00;;;;;;;;;;6112479;29;20052;-76
2021/04/09 10:04:32;;;;;;;15.63;7.00;;;;;;;;;;6119050;29;20056;-75
2021/04/09 10:07:33;;;;;;;10.75;6.80;;;;;;;;;;6116369;29;20126;-76
2021/04/09 10:10:37;;;;;;;12.85;7.68;;;;;;;;;;6115776;29;20086;-77
2021/04/09 10:13:40;;;;;;;13.25;6.82;;;;;;;;;;6118150;29;20466;-76
2021/04/09 10:16:42;;;;;;;11.60;6.70;;;;;;;;;;6115018;29;20066;-76
2021/04/09 10:19:57;;;;;;;12.75;6.82;;;;;;;;;;6116922;29;20098;-77
2021/04/09 10:22:58;;;;;;;10.82;6.90;;;;;;;;;;6113538;29;20070;-76
2021/04/09 10:26:00;;;;;;;11.10;6.45;;;;;;;;;;6115671;29;20079;-79
2021/04/09 10:29:02;;;;;;;13.30;8.32;;;;;;;;;;6113824;29;20048;-76
2021/04/09 10:32:05;;;;;;;10.80;6.60;;;;;;;;;;6110763;29;20514;-76
2021/04/09 10:35:07;;;;;;;11.15;6.10;;;;;;;;;;6113481;29;20095;-76
2021/04/09 10:38:10;;;;;;;14.20;5.57;;;;;;;;;;6126046;29;20071;-77
2021/04/09 10:41:26;;;;;;;32.95;7.82;;;;;;;;;;6121971;29;20055;-77
2021/04/09 10:44:29;;;;;;;16.17;5.07;;;;;;;;;;6116825;29;20111;-79
2021/04/09 10:47:31;;;;;;;19.95;5.70;;;;;;;;;;6112627;29;20149;-78
2021/04/09 10:50:32;;;;;;;42.10;6.93;;;;;;;;;;6117655;29;20098;-77
2021/04/09 10:53:33;;;;;;;26.48;5.47;;;;;;;;;;6114841;29;20059;-77
2021/04/09 10:56:35;;;;;;;10.18;5.25;;;;;;;;;;6114543;29;20134;-77
2021/04/09 10:59:38;;;;;;;12.48;5.28;;;;;;;;;;6122855;29;20136;-77
2021/04/09 11:02:39;;;;;;;;;;;;;;;;;;6112752;29;20055;-77
2021/04/09 11:05:40;;;;;;;10.43;4.88;;;;;;;;;;6116504;29;20302;-77
2021/04/09 11:08:42;;;;;;;8.15;4.78;;;;;;;;;;6116701;29;20107;-77
2021/04/09 11:11:43;;;;;;;9.00;4.50;;;;;;;;;;6117003;29;20055;-78
2021/04/09 11:14:45;;;;;;;15.55;4.35;;;;;;;;;;6118185;29;20229;-78
2021/04/09 11:17:53;;;;;;;10.35;4.28;;;;;;;;;;6117432;29;20094;-78
2021/04/09 11:20:55;;;;;;;9.38;4.68;;;;;;;;;;6112963;29;20135;-78
2021/04/09 11:23:58;;;;;;;8.75;4.65;;;;;;;;;;6117668;29;20402;-77
2021/04/09 11:27:01;;;;;;;31.23;5.78;;;;;;;;;;6115026;29;20059;-78
2021/04/09 11:30:21;;;;;;;31.67;5.03;;;;;;;;;;6110764;29;20060;-72
2021/04/09 11:33:30;;;;;;;13.50;4.95;;;;;;;;;;6108885;29;20051;-78
2021/04/09 11:36:39;;;;;;;11.75;4.25;;;;;;;;;;6114112;29;20488;-75
2021/04/09 11:39:50;;;;;;;8.85;3.60;;;;;;;;;;6110538;29;20570;-77
2021/04/09 11:42:53;;;;;;;10.98;4.30;;;;;;;;;;6113847;29;20202;-75
2021/04/09 11:45:55;;;;;;;15.73;4.00;;;;;;;;;;6113955;29;20047;-72
2021/04/09 11:49:00;;;;;;;9.98;4.40;;;;;;;;;;6109580;29;20055;-74
2021/04/09 11:52:01;;;;;;;6.80;4.50;;;;;;;;;;6117494;29;20051;-73
2021/04/09 11:55:13;;;;;;;7.90;4.82;;;;;;;;;;6116609;29;20566;-76
2021/04/09 11:58:18;;;;;;;8.15;4.70;;;;;;;;;;6113103;29;20048;-74
2021/04/09 12:01:26;;;;;;;12.52;4.70;;;;;;;;;;6118495;29;20062;-70
2021/04/09 12:04:31;;;;;;;9.85;4.95;;;;;;;;;;6116039;29;20082;-73
2021/04/09 12:07:32;;;;;;;7.22;4.20;;;;;;;;;;6110535;29;20079;-76
2021/04/09 12:10:35;;;;;;;11.05;5.03;;;;;;;;;;6106441;29;20056;-74
2021/04/09 12:13:37;;;;;;;8.20;5.07;;;;;;;;;;6113527;29;20044;-73
2021/04/09 12:16:39;;;;;;;10.43;5.47;;;;;;;;;;6120547;29;20059;-73
2021/04/09 12:19:42;;;;;;;9.98;5.18;;;;;;;;;;6124434;29;20090;-75
2021/04/09 12:22:44;;;;;;;9.82;5.40;;;;;;;;;;6108762;29;20131;-73
2021/04/09 12:25:45;;;;;;;9.90;4.38;;;;;;;;;;6109914;29;20099;-74
2021/04/09 12:28:46;;;;;;;12.60;4.65;;;;;;;;;;6115605;29;20050;-73
2021/04/09 12:31:48;;;;;;;8.80;4.68;;;;;;;;;;6111009;29;20048;-75
2021/04/09 12:34:49;;;;;;;14.23;4.93;;;;;;;;;;6106754;29;20055;-74
2021/04/09 12:37:50;;;;;;;8.95;5.70;;;;;;;;;;6111382;29;20052;-74
2021/04/09 12:40:52;;;;;;;7.88;5.03;;;;;;;;;;6114779;29;20051;-73
2021/04/09 12:43:53;;;;;;;9.48;4.82;;;;;;;;;;6112959;29;20084;-77
2021/04/09 12:46:55;;;;;;;8.05;4.70;;;;;;;;;;6120082;29;20059;-73
2021/04/09 12:49:56;;;;;;;7.85;4.25;;;;;;;;;;6106690;29;20149;-73
2021/04/09 12:52:57;;;;;;;6.88;4.32;;;;;;;;;;6119948;29;20704;-76
2021/04/09 12:55:58;;;;;;;8.10;4.03;;;;;;;;;;6115834;29;20127;-77
2021/04/09 12:58:59;;;;;;;5.03;3.80;;;;;;;;;;6113431;29;20076;-73
2021/04/09 13:02:01;;;;;;;8.60;4.40;;;;;;;;;;6112677;29;20060;-74
2021/04/09 13:05:02;;;;;;;8.95;4.43;;;;;;;;;;6113175;29;20075;-73
2021/04/09 13:08:04;;;;;;;7.93;4.00;;;;;;;;;;6111951;29;20075;-74
2021/04/09 13:11:07;;;;;;;9.02;3.67;;;;;;;;;;6118668;29;20067;-74
2021/04/09 13:14:08;;;;;;;7.32;3.78;;;;;;;;;;6115156;29;20095;-73
2021/04/09 13:17:10;;;;;;;8.35;4.05;;;;;;;;;;6119679;29;20100;-71
2021/04/09 13:20:11;;;;;;;7.10;3.40;;;;;;;;;;6121155;29;20485;-71
2021/04/09 13:23:12;;;;;;;8.80;4.10;;;;;;;;;;6127127;29;20127;-72
2021/04/09 13:26:14;;;;;;;9.57;4.10;;;;;;;;;;6121638;29;20142;-74
2021/04/09 13:29:15;;;;;;;10.40;4.55;;;;;;;;;;6111164;28;20063;-73
2021/04/09 13:32:17;;;;;;;13.60;5.97;;;;;;;;;;6115983;29;20096;-73
2021/04/09 13:35:18;;;;;;;8.60;4.85;;;;;;;;;;6119126;29;20452;-74
2021/04/09 13:38:19;;;;;;;6.43;4.00;;;;;;;;;;6119257;29;20130;-71
2021/04/09 13:41:20;;;;;;;8.45;4.03;;;;;;;;;;6120109;29;20127;-73
2021/04/09 13:44:21;;;;;;;9.93;4.13;;;;;;;;;;6117618;29;20040;-73
2021/04/09 13:47:23;;;;;;;10.20;4.97;;;;;;;;;;6117241;29;20576;-73
2021/04/09 13:50:25;;;;;;;8.80;4.70;;;;;;;;;;6121550;29;20388;-75
2021/04/09 13:53:26;;;;;;;6.80;4.20;;;;;;;;;;6122366;29;20158;-73
2021/04/09 13:56:27;;;;;;;10.13;4.18;;;;;;;;;;6121695;29;20078;-72
2021/04/09 13:59:28;;;;;;;8.13;4.65;;;;;;;;;;6117964;29;20063;-74
2021/04/09 14:02:30;;;;;;;10.85;4.72;;;;;;;;;;6114603;29;20066;-73
2021/04/09 14:05:31;;;;;;;14.07;4.22;;;;;;;;;;6129897;29;20142;-74
2021/04/09 14:08:33;;;;;;;8.43;4.18;;;;;;;;;;6122861;29;20048;-74
2021/04/09 14:11:34;;;;;;;8.93;4.32;;;;;;;;;;6117783;29;20482;-73
2021/04/09 14:14:35;;;;;;;9.50;3.95;;;;;;;;;;6114592;29;20072;-74
2021/04/09 14:17:37;;;;;;;7.28;3.70;;;;;;;;;;6118079;29;20051;-74
2021/04/09 14:20:38;;;;;;;10.35;4.50;;;;;;;;;;6118975;29;20142;-77
2021/04/09 14:23:39;;;;;;;12.35;4.32;;;;;;;;;;6120268;29;20118;-74
2021/04/09 14:26:41;;;;;;;10.10;4.60;;;;;;;;;;6115657;29;20044;-76
2021/04/09 14:29:42;;;;;;;9.95;4.07;;;;;;;;;;6118124;29;20532;-74
2021/04/09 14:32:44;;;;;;;13.73;4.35;;;;;;;;;;6117252;29;20079;-74
2021/04/09 14:35:45;;;;;;;61.97;6.53;;;;;;;;;;6118977;29;20047;-76
2021/04/09 14:38:46;;;;;;;13.38;4.75;;;;;;;;;;6114745;29;20411;-75
2021/04/09 14:41:47;;;;;;;21.80;4.65;;;;;;;;;;6111378;29;20071;-74
2021/04/09 14:44:49;;;;;;;35.33;5.45;;;;;;;;;;6117263;29;20048;-74
2021/04/09 14:47:51;;;;;;;149.82;12.32;;;;;;;;;;6117521;29;20146;-75
2021/04/09 14:50:52;;;;;;;38.20;5.60;;;;;;;;;;6120459;29;20325;-74
2021/04/09 14:53:54;;;;;;;18.38;5.30;;;;;;;;;;6112588;29;20061;-73
2021/04/09 14:56:55;;;;;;;115.63;10.18;;;;;;;;;;6114175;29;20123;-77
2021/04/09 14:59:57;;;;;;;48.25;7.35;;;;;;;;;;6117526;29;20134;-74
2021/04/09 15:02:59;;;;;;;60.10;7.05;;;;;;;;;;6115661;29;20448;-74
2021/04/09 15:06:01;;;;;;;29.08;5.30;;;;;;;;;;6118043;29;20051;-74
2021/04/09 15:09:02;;;;;;;11.05;5.00;;;;;;;;;;6116882;29;20044;-75
2021/04/09 15:12:04;;;;;;;84.82;8.32;;;;;;;;;;6117515;29;20043;-73
2021/04/09 15:15:07;;;;;;;59.00;6.88;;;;;;;;;;6115170;29;20102;-75
2021/04/09 15:18:09;;;;;;;4.57;3.45;;;;;;;;;;6111157;29;20079;-77
2021/04/09 15:21:10;;;;;;;15.45;4.15;;;;;;;;;;6119116;29;20067;-74
2021/04/09 15:24:11;;;;;;;11.77;4.30;;;;;;;;;;6113039;29;20130;-74
2021/04/09 15:27:12;;;;;;;23.25;4.05;;;;;;;;;;6115155;29;20152;-72
2021/04/09 15:30:16;;;;;;;7.60;3.75;;;;;;;;;;6113614;29;20082;-72
2021/04/09 15:33:18;;;;;;;10.52;3.50;;;;;;;;;;6114198;29;20047;-71
2021/04/09 15:36:19;;;;;;;20.67;4.53;;;;;;;;;;6110463;29;20086;-73
2021/04/09 15:39:20;;;;;;;11.32;3.70;;;;;;;;;;6110973;29;20063;-71
2021/04/09 15:42:21;;;;;;;17.10;4.07;;;;;;;;;;6114027;29;20043;-76
2021/04/09 15:45:23;;;;;;;9.77;3.78;;;;;;;;;;6111102;29;20055;-77
2021/04/09 15:48:26;;;;;;;8.88;3.47;;;;;;;;;;6113915;29;20790;-79
2021/04/09 15:51:27;;;;;;;12.00;4.00;;;;;;;;;;6109514;29;20360;-74
2021/04/09 15:54:28;;;;;;;18.98;4.35;;;;;;;;;;6116113;29;20162;-79
2021/04/09 16:00:40;;;;;;;9.13;4.53;;;;;;;;;;6519377;23;20060;-77
2021/04/09 16:03:42;;;;;;;8.00;4.43;;;;;;;;;;6072738;29;20493;-77
2021/04/09 16:06:43;;;;;;;7.00;4.22;;;;;;;;;;6072183;29;20068;-76
2021/04/09 16:09:44;;;;;;;11.68;4.20;;;;;;;;;;6073173;29;20152;-77
2021/04/09 16:12:46;;;;;;;8.82;3.97;;;;;;;;;;6073459;29;20044;-76
2021/04/09 16:15:47;;;;;;;8.32;4.25;;;;;;;;;;6072768;29;21873;-77
2021/04/09 16:18:49;;;;;;;13.70;5.03;;;;;;;;;;6072393;29;20045;-77
2021/04/09 16:21:50;;;;;;;7.30;3.95;;;;;;;;;;6075081;29;20107;-77
2021/04/09 16:24:51;;;;;;;9.77;3.90;;;;;;;;;;6077855;29;20493;-77
2021/04/09 16:27:53;;;;;;;11.98;4.40;;;;;;;;;;6076282;29;20052;-75
2021/04/09 16:30:57;;;;;;;7.78;4.05;;;;;;;;;;6076487;29;20074;-77
2021/04/09 16:33:59;;;;;;;9.98;3.85;;;;;;;;;;6071703;29;20132;-78
2021/04/09 16:37:00;;;;;;;11.20;4.65;;;;;;;;;;6073884;29;20168;-79
2021/04/09 16:40:01;;;;;;;10.05;3.90;;;;;;;;;;6069894;29;20120;-77
2021/04/09 16:43:03;;;;;;;9.30;4.28;;;;;;;;;;6071739;29;20076;-77
2021/04/09 16:46:04;;;;;;;7.53;4.00;;;;;;;;;;6085066;29;20052;-77
2021/04/09 16:49:06;;;;;;;11.10;4.47;;;;;;;;;;6079538;29;20169;-78
2021/04/09 16:52:07;;;;;;;6.72;3.67;;;;;;;;;;6079907;29;20131;-78
2021/04/09 16:55:10;;;;;;;5.13;4.05;;;;;;;;;;6075862;29;20047;-78
2021/04/09 16:58:11;;;;;;;11.13;4.30;;;;;;;;;;6080106;29;21250;-78
2021/04/09 17:01:13;;;;;;;10.50;4.18;;;;;;;;;;6083755;29;20111;-78
2021/04/09 17:04:15;;;;;;;10.73;3.85;;;;;;;;;;6073850;29;20068;-77
2021/04/09 17:07:16;;;;;;;10.07;4.07;;;;;;;;;;6080415;29;20080;-78
2021/04/09 17:10:18;;;;;;;5.85;3.88;;;;;;;;;;6078682;29;20048;-78
2021/04/09 17:13:21;;;;;;;5.20;3.50;;;;;;;;;;6082741;29;20119;-78
2021/04/09 17:16:23;;;;;;;6.88;4.00;;;;;;;;;;6085935;29;20064;-82
2021/04/09 17:19:25;;;;;;;8.02;4.35;;;;;;;;;;6076791;29;20158;-77
2021/04/09 17:22:26;;;;;;;10.35;4.00;;;;;;;;;;6072972;29;20053;-77
2021/04/09 17:25:27;;;;;;;12.77;4.32;;;;;;;;;;6075301;29;20140;-78
2021/04/09 17:28:28;;;;;;;7.47;4.25;;;;;;;;;;6072989;29;20052;-77
2021/04/09 17:31:30;;;;;;;8.75;3.80;;;;;;;;;;6074036;29;20116;-77
2021/04/09 17:34:32;;;;;;;12.35;5.00;;;;;;;;;;6084481;29;20057;-78
2021/04/09 17:37:33;;;;;;;8.80;4.60;;;;;;;;;;6078856;29;20135;-74
2021/04/09 17:40:35;;;;;;;7.50;4.38;;;;;;;;;;6076897;29;21371;-74
2021/04/09 17:43:36;;;;;;;10.52;4.80;;;;;;;;;;6075750;29;20076;-75
2021/04/09 17:46:37;;;;;;;11.25;4.68;;;;;;;;;;6077351;29;20544;-74
2021/04/09 17:49:40;;;;;;;11.20;5.10;;;;;;;;;;6076170;29;20489;-75
2021/04/09 17:52:41;;;;;;;13.60;5.10;;;;;;;;;;6078088;29;20044;-77
2021/04/09 17:55:42;;;;;;;8.70;4.65;;;;;;;;;;6075504;29;20499;-83
2021/04/09 17:58:43;;;;;;;9.27;4.70;;;;;;;;;;6079173;29;20101;-75
2021/04/09 18:01:44;;;;;;;9.30;4.50;;;;;;;;;;6077362;29;20535;-75
2021/04/09 18:04:46;;;;;;;11.13;4.95;;;;;;;;;;6084115;29;20059;-76
2021/04/09 18:07:48;;;;;;;7.03;4.72;;;;;;;;;;6076469;29;20124;-77
2021/04/09 18:10:49;;;;;;;7.82;4.40;;;;;;;;;;6073674;29;20048;-73
2021/04/09 18:13:50;;;;;;;8.88;4.40;;;;;;;;;;6069278;29;20163;-70